Flight Track Log - Related Links

Times and Time Zones

All times are in EDT time to prevent confusion due to time zone crossing. See the EJA922 flight status page for this flight to view local times or setup timezone preferences in your user account.

Time Position Orientation Groundspeed Altitude Reporting Facility
EDT Latitude Longitude Course Direction KTS MPH feet Rate Location/Type
Thu 12:29:18 PM 37.3500 -121.9000 152° Southeast 186 214 2,300  Level Northern TRACON
Thu 12:30:12 PM 37.3000 -121.8667 152° Southeast 228 262 7,200 4,301 Climbing Northern TRACON
Thu 12:31:11 PM 37.2489 -121.8531 168° South 262 302 10,400 2,700 Climbing Oakland Center
Thu 12:32:12 PM 37.2514 -121.9433 272° West 307 353 12,600 2,244 Climbing Oakland Center
Thu 12:33:14 PM 37.3433 -121.9517 356° North 338 389 15,000 1,355 Climbing Oakland Center
Thu 12:34:16 PM 37.4689 -121.9569 358° North 381 438 15,400 683 Climbing Oakland Center
Thu 12:35:17 PM 37.5769 -121.9686 355° North 389 448 16,400 780 Climbing Oakland Center
Thu 12:36:19 PM 37.6847 -121.9628 North 396 456 17,000 298 Climbing Oakland Center
Thu 12:37:18 PM 37.8000 -121.9500 North 413 475 17,000  Level Northern TRACON
Thu 12:38:18 PM 37.9000 -121.8500 38° Northeast 425 489 17,000  Level Northern TRACON
Thu 12:39:18 PM 37.9500 -121.7333 61° Northeast 429 494 17,000  Level Northern TRACON
Thu 12:40:18 PM 38.0167 -121.6000 58° Northeast 431 496 17,000  Level Northern TRACON
Thu 12:41:18 PM 38.0667 -121.4667 64° Northeast 440 506 17,000  Level Northern TRACON
Thu 12:42:18 PM 38.1333 -121.3333 58° Northeast 441 507 17,000  Level Northern TRACON
Thu 12:43:18 PM 38.1833 -121.2000 64° Northeast 432 497 17,000  Level Northern TRACON
Thu 12:44:24 PM 38.2500 -121.0667 57° Northeast 426 490 17,000  Level Northern TRACON
Thu 12:45:33 PM 38.3106 -120.9272 61° Northeast 425 489 17,000  Level Oakland Center
Thu 12:46:35 PM 38.3792 -120.7711 61° Northeast 424 488 17,000  Level Oakland Center
Thu 12:47:36 PM 38.4361 -120.6417 61° Northeast 423 487 17,000  Level Oakland Center
Thu 12:48:38 PM 38.4925 -120.5128 61° Northeast 421 484 17,000  Level Oakland Center
Thu 12:49:39 PM 38.5489 -120.3819 61° Northeast 421 484 17,000  Level Oakland Center
Thu 12:50:41 PM 38.6064 -120.2508 61° Northeast 424 488 17,000  Level Oakland Center
Thu 12:51:42 PM 38.6633 -120.1186 61° Northeast 425 489 17,000 -634 Level Oakland Center
Thu 12:52:44 PM 38.7228 -119.9861 60° Northeast 428 493 15,700 -1,415 Descending Oakland Center
Thu 12:53:45 PM 38.7783 -119.8572 61° Northeast 417 480 14,100 -829 Descending Oakland Center
Thu 12:54:47 PM 38.8731 -119.7708 35° Northeast 377 434 14,000 -146 Descending Oakland Center
Thu 12:55:48 PM 38.9814 -119.7711 360° North 382 440 13,800 -927 Descending Oakland Center
Thu 12:56:50 PM 39.0858 -119.7714 360° North 379 436 12,100 -1,645 Descending Oakland Center
Thu 12:57:52 PM 39.1811 -119.7714 360° North 366 421 10,400 -1,610 Descending Oakland Center
Thu 12:58:53 PM 39.2625 -119.7714 360° North 333 383 8,800 -1,460 Descending Oakland Center
Thu 01:01:01 PM 39.4167 -119.7667 North 222 255 5,800 -1,277 Descending Northern TRACON
Thu 01:02:01 PM 39.4667 -119.7667 360° North 160 184 4,800 -1,000 Descending Northern TRACON
Thu 01:04:00 PM 39.4833 -119.7667 North  Level FlightAware
Thu 01:11:00 PM 39.4991 -119.7681 North  Level Estimated

Login

Don't have an account? Register now (free) for customized features, flight alerts, and more!